createdAt,value
2023-03-25T00:01:33.188Z,99924.16
2023-03-25T00:04:04.204Z,99924.31
2023-03-25T00:06:34.331Z,99920.34
2023-03-25T00:09:02.358Z,99927.03
2023-03-25T00:11:29.709Z,99931.09
2023-03-25T00:13:56.783Z,99930.72
2023-03-25T00:16:24.117Z,99927.03
2023-03-25T00:18:51.194Z,99922.03
2023-03-25T00:21:19.404Z,99929.63
2023-03-25T00:23:46.392Z,99914.59
2023-03-25T00:26:13.520Z,99923.94
2023-03-25T00:28:40.487Z,99925.41
2023-03-25T00:31:12.933Z,99917.97
2023-03-25T00:33:43.558Z,99921.75
2023-03-25T00:36:13.655Z,99922.47
2023-03-25T00:38:43.213Z,99921.13
2023-03-25T00:41:22.686Z,99920.69
2023-03-25T00:43:52.530Z,99917.31
2023-03-25T00:46:19.783Z,99924.59
2023-03-25T00:48:46.819Z,99915.03
2023-03-25T00:51:21.306Z,99918.84
2023-03-25T00:53:53.015Z,99910.97
2023-03-25T00:56:20.355Z,99911.16
2023-03-25T00:58:47.311Z,99905.34
2023-03-25T01:01:17.897Z,99909.75
2023-03-25T01:03:45.089Z,99913.69
2023-03-25T01:06:13.144Z,99914.50
2023-03-25T01:08:41.728Z,99904.22
2023-03-25T01:11:21.742Z,99902.97
2023-03-25T01:13:48.897Z,99914.56
2023-03-25T01:16:15.867Z,99906.75
2023-03-25T01:18:42.893Z,99906.91
2023-03-25T01:21:09.785Z,99897.47
2023-03-25T01:23:36.687Z,99898.81
2023-03-25T01:26:03.939Z,99895.78
2023-03-25T01:28:32.291Z,99894.38
2023-03-25T01:31:02.107Z,99893.56
2023-03-25T01:33:29.169Z,99892.66
2023-03-25T01:35:56.133Z,99889.09
2023-03-25T01:38:23.434Z,99886.63
2023-03-25T01:40:52.171Z,99888.16
2023-03-25T01:43:19.861Z,99877.94
2023-03-25T01:45:49.150Z,99881.25
2023-03-25T01:48:22.824Z,99882.97
2023-03-25T01:50:54.562Z,99877.22
2023-03-25T01:53:21.818Z,99874.72
2023-03-25T01:55:53.031Z,99878.38
2023-03-25T01:58:23.867Z,99873.75
2023-03-25T02:00:52.156Z,99870.16
2023-03-25T02:03:24.067Z,99870.53
2023-03-25T02:05:58.579Z,99873.53
2023-03-25T02:08:26.567Z,99870.88
2023-03-25T02:10:54.414Z,99870.16
2023-03-25T02:13:21.733Z,99866.63
2023-03-25T02:16:14.219Z,99869.47
2023-03-25T02:19:00.537Z,99871.00
2023-03-25T02:22:11.758Z,99865.38
2023-03-25T02:25:09.794Z,99856.00
2023-03-25T02:27:57.423Z,99858.44
2023-03-25T02:31:10.997Z,99855.88
2023-03-25T02:34:23.414Z,99865.31
2023-03-25T02:37:30.857Z,99868.09
2023-03-25T02:40:07.069Z,99861.31
2023-03-25T02:42:41.230Z,99859.94
2023-03-25T02:45:18.729Z,99851.50
2023-03-25T02:47:51.887Z,99854.28
2023-03-25T02:50:26.542Z,99853.94
2023-03-25T02:53:00.154Z,99851.25
2023-03-25T02:55:31.556Z,99850.44
2023-03-25T02:58:03.937Z,99846.53
2023-03-25T03:00:32.145Z,99846.66
2023-03-25T03:03:03.618Z,99839.63
2023-03-25T03:05:33.158Z,99845.16
2023-03-25T03:08:23.060Z,99840.34
2023-03-25T03:11:07.561Z,99841.81
2023-03-25T03:13:58.776Z,99841.44
2023-03-25T03:16:35.841Z,99839.97
2023-03-25T03:19:24.028Z,99836.06
2023-03-25T03:22:01.078Z,99824.59
2023-03-25T03:24:33.437Z,99830.63
2023-03-25T03:27:12.055Z,99829.38
2023-03-25T03:29:45.929Z,99827.97
2023-03-25T03:32:20.886Z,99818.56
2023-03-25T03:34:53.893Z,99819.28
2023-03-25T03:37:29.754Z,99825.16
2023-03-25T03:39:58.012Z,99828.63
2023-03-25T03:42:33.701Z,99823.78
2023-03-25T03:45:07.578Z,99826.75
2023-03-25T03:47:41.424Z,99839.38
2023-03-25T03:50:15.889Z,99833.09
2023-03-25T03:52:50.465Z,99832.38
2023-03-25T03:55:29.021Z,99828.69
2023-03-25T03:58:03.473Z,99831.94
2023-03-25T04:00:38.102Z,99838.84
2023-03-25T04:03:14.739Z,99836.78
2023-03-25T04:05:51.534Z,99843.28
2023-03-25T04:08:29.102Z,99845.09
2023-03-25T04:11:03.656Z,99846.69
2023-03-25T04:13:37.478Z,99841.41
2023-03-25T04:16:05.731Z,99848.56
2023-03-25T04:18:33.714Z,99852.63
2023-03-25T04:21:00.979Z,99861.94
2023-03-25T04:23:31.819Z,99861.94
2023-03-25T04:26:02.959Z,99855.38
2023-03-25T04:28:31.749Z,99850.75
2023-03-25T04:31:00.455Z,99855.84
2023-03-25T04:33:31.835Z,99857.91
2023-03-25T04:36:01.746Z,99855.91
2023-03-25T04:38:29.383Z,99849.88
2023-03-25T04:40:56.358Z,99855.66
2023-03-25T04:43:23.245Z,99857.06
2023-03-25T04:45:54.591Z,99852.34
2023-03-25T04:48:29.805Z,99856.81
2023-03-25T04:50:58.849Z,99853.53
2023-03-25T04:53:27.104Z,99845.00
2023-03-25T04:55:54.452Z,99846.84
2023-03-25T04:58:22.046Z,99846.69
2023-03-25T05:00:52.697Z,99841.84
2023-03-25T05:03:24.295Z,99843.00
2023-03-25T05:05:52.799Z,99850.31
2023-03-25T05:08:21.573Z,99844.78
2023-03-25T05:10:49.407Z,99852.13
2023-03-25T05:13:18.110Z,99850.66
2023-03-25T05:15:45.025Z,99849.41
2023-03-25T05:18:16.103Z,99852.06
2023-03-25T05:20:46.861Z,99856.91
2023-03-25T05:23:17.828Z,99862.59
2023-03-25T05:25:44.949Z,99856.38
2023-03-25T05:28:13.850Z,99852.56
2023-03-25T05:30:42.191Z,99846.38
2023-03-25T05:33:10.230Z,99853.31
2023-03-25T05:35:39.483Z,99849.16
2023-03-25T05:38:12.448Z,99849.53
2023-03-25T05:40:40.365Z,99856.44
2023-03-25T05:43:07.711Z,99858.06
2023-03-25T05:45:37.715Z,99863.47
2023-03-25T05:48:05.459Z,99856.19
2023-03-25T05:50:32.524Z,99861.69
2023-03-25T05:53:00.832Z,99865.97
2023-03-25T05:55:28.651Z,99860.22
2023-03-25T05:57:56.956Z,99868.31
2023-03-25T06:00:24.571Z,99870.06
2023-03-25T06:02:52.237Z,99871.03
2023-03-25T06:05:23.330Z,99860.75
2023-03-25T06:07:51.471Z,99862.25
2023-03-25T06:10:20.763Z,99857.97
2023-03-25T06:12:49.932Z,99867.78
2023-03-25T06:15:43.942Z,99862.41
2023-03-25T06:18:10.917Z,99867.22
2023-03-25T06:20:37.851Z,99869.53
2023-03-25T06:23:04.754Z,99870.09
2023-03-25T06:25:32.976Z,99868.41
2023-03-25T06:28:03.151Z,99870.63
2023-03-25T06:30:30.259Z,99871.66
2023-03-25T06:32:58.676Z,99870.00
2023-03-25T06:35:25.731Z,99871.19
2023-03-25T06:37:52.698Z,99874.00
2023-03-25T06:40:20.065Z,99882.75
2023-03-25T06:42:48.304Z,99875.88
2023-03-25T06:45:16.082Z,99869.31
2023-03-25T06:47:43.019Z,99872.44
2023-03-25T06:50:10.939Z,99875.78
2023-03-25T06:52:37.868Z,99874.94
2023-03-25T06:55:05.889Z,99870.34
2023-03-25T06:57:32.795Z,99875.22
2023-03-25T07:00:01.320Z,99875.50
2023-03-25T07:02:28.300Z,99875.84
2023-03-25T07:04:55.303Z,99870.47
2023-03-25T07:07:22.519Z,99868.50
2023-03-25T07:09:51.782Z,99876.59
2023-03-25T07:12:18.718Z,99873.50
2023-03-25T07:14:51.499Z,99870.72
2023-03-25T07:17:20.414Z,99870.25
2023-03-25T07:19:47.519Z,99868.19
2023-03-25T07:22:14.607Z,99870.16
2023-03-25T07:24:41.664Z,99873.69
2023-03-25T07:27:11.034Z,99876.03
2023-03-25T07:29:37.911Z,99878.09
2023-03-25T07:32:05.675Z,99870.34
2023-03-25T07:34:34.051Z,99876.91
2023-03-25T07:37:00.931Z,99866.03
2023-03-25T07:39:27.854Z,99881.16
2023-03-25T07:41:55.075Z,99884.50
2023-03-25T07:44:21.956Z,99885.88
2023-03-25T07:46:49.186Z,99889.59
2023-03-25T07:49:16.953Z,99895.97
2023-03-25T07:51:46.055Z,99896.72
2023-03-25T07:54:13.173Z,99888.88
2023-03-25T07:56:40.306Z,99896.81
2023-03-25T07:59:07.240Z,99895.91
2023-03-25T08:01:34.195Z,99903.63
2023-03-25T08:04:01.430Z,99899.94
2023-03-25T08:06:28.841Z,99922.50
2023-03-25T08:08:57.069Z,99913.25
2023-03-25T08:11:24.000Z,99913.41
2023-03-25T08:13:51.075Z,99920.50
2023-03-25T08:16:18.268Z,99920.69
2023-03-25T08:18:45.447Z,99927.34
2023-03-25T08:21:13.040Z,99913.22
2023-03-25T08:23:40.998Z,99921.44
2023-03-25T08:26:10.226Z,99924.25
2023-03-25T08:28:37.179Z,99921.22
2023-03-25T08:31:08.552Z,99918.84
2023-03-25T08:33:41.149Z,99915.13
2023-03-25T08:36:10.599Z,99921.44
2023-03-25T08:38:37.665Z,99921.84
2023-03-25T08:41:05.191Z,99917.31
2023-03-25T08:43:33.408Z,99932.16
2023-03-25T08:46:00.385Z,99930.56
2023-03-25T08:48:27.341Z,99924.81
2023-03-25T08:50:54.364Z,99920.56
2023-03-25T08:53:21.344Z,99921.97
2023-03-25T08:55:53.166Z,99920.94
2023-03-25T08:58:20.877Z,99907.91
2023-03-25T09:00:54.190Z,99912.66
2023-03-25T09:03:22.890Z,99908.16
2023-03-25T09:05:50.920Z,99904.00
2023-03-25T09:08:18.062Z,99907.69
2023-03-25T09:10:45.171Z,99903.44
2023-03-25T09:13:12.298Z,99911.19
2023-03-25T09:15:39.365Z,99899.06
2023-03-25T09:18:10.213Z,99912.56
2023-03-25T09:20:37.166Z,99903.75
2023-03-25T09:23:04.407Z,99904.56
2023-03-25T09:25:31.384Z,99892.44
2023-03-25T09:27:58.348Z,99899.94
2023-03-25T09:30:25.347Z,99896.88
2023-03-25T09:32:52.298Z,99902.66
2023-03-25T09:35:20.818Z,99903.13
2023-03-25T09:37:52.184Z,99903.56
2023-03-25T09:40:21.729Z,99892.25
2023-03-25T09:43:10.108Z,99888.81
2023-03-25T09:45:44.573Z,99896.47
2023-03-25T09:48:29.457Z,99897.34
2023-03-25T09:51:03.372Z,99890.84
2023-03-25T09:53:37.600Z,99895.94
2023-03-25T09:56:13.702Z,99885.22
2023-03-25T09:58:45.471Z,99892.22
2023-03-25T10:01:45.458Z,99873.19
2023-03-25T10:05:03.161Z,99881.25
2023-03-25T10:07:48.589Z,99870.22
2023-03-25T10:10:27.410Z,99862.19
2023-03-25T10:13:06.864Z,99876.19
2023-03-25T10:15:44.094Z,99883.91
2023-03-25T10:18:37.566Z,99888.53
2023-03-25T10:21:11.965Z,99897.03
2023-03-25T10:23:47.750Z,99911.81
2023-03-25T10:26:23.654Z,99915.47
2023-03-25T10:28:58.349Z,99909.72
2023-03-25T10:31:31.968Z,99917.84
2023-03-25T10:34:05.225Z,99908.63
2023-03-25T10:36:38.191Z,99914.31
2023-03-25T10:39:18.838Z,99919.00
2023-03-25T10:41:53.286Z,99910.66
2023-03-25T10:44:22.298Z,99910.00
2023-03-25T10:46:57.068Z,99903.19
2023-03-25T10:49:30.010Z,99902.66
2023-03-25T10:51:59.496Z,99902.44
2023-03-25T10:54:32.732Z,99897.25
2023-03-25T10:57:05.008Z,99896.00
2023-03-25T10:59:39.273Z,99894.72
2023-03-25T11:02:16.866Z,99888.69
2023-03-25T11:04:48.269Z,99890.16
2023-03-25T11:07:21.144Z,99895.88
2023-03-25T11:09:51.630Z,99887.78
2023-03-25T11:12:27.369Z,99889.06
2023-03-25T11:15:01.870Z,99877.97
2023-03-25T11:17:29.272Z,99879.00
2023-03-25T11:20:06.754Z,99887.22
2023-03-25T11:22:38.728Z,99878.50
2023-03-25T11:25:18.208Z,99892.06
2023-03-25T11:27:50.154Z,99891.50
2023-03-25T11:30:20.295Z,99887.19
2023-03-25T11:32:59.209Z,99876.97
2023-03-25T11:35:29.864Z,99894.47
2023-03-25T11:38:00.209Z,99870.56
2023-03-25T11:40:31.737Z,99868.38
2023-03-25T11:43:01.905Z,99872.25
2023-03-25T11:45:48.994Z,99878.63
2023-03-25T11:48:20.802Z,99887.41
2023-03-25T11:50:53.946Z,99897.22
2023-03-25T11:53:25.861Z,99883.66
2023-03-25T11:55:59.207Z,99888.97
2023-03-25T11:58:31.666Z,99888.81
2023-03-25T12:01:07.931Z,99882.88
2023-03-25T12:03:35.817Z,99886.06
2023-03-25T12:06:20.607Z,99901.94
2023-03-25T12:08:53.887Z,99888.53
2023-03-25T12:11:29.078Z,99903.78
2023-03-25T12:14:29.947Z,99887.53
2023-03-25T12:17:07.060Z,99893.09
2023-03-25T12:19:51.764Z,99890.75
2023-03-25T12:22:38.836Z,99885.38
2023-03-25T12:25:26.291Z,99893.94
2023-03-25T12:28:21.200Z,99885.56
2023-03-25T12:31:04.948Z,99893.41
2023-03-25T12:33:50.836Z,99893.47
2023-03-25T12:36:39.232Z,99897.31
2023-03-25T12:39:41.501Z,99899.50
2023-03-25T12:42:29.278Z,99894.88
2023-03-25T12:45:37.524Z,99900.69
2023-03-25T12:48:19.722Z,99891.28
2023-03-25T12:51:00.402Z,99895.34
2023-03-25T12:53:46.770Z,99905.31
2023-03-25T12:56:37.848Z,99886.84
2023-03-25T12:59:41.973Z,99881.41
2023-03-25T13:02:35.336Z,99874.19
2023-03-25T13:05:19.070Z,99881.72
2023-03-25T13:07:53.944Z,99892.53
2023-03-25T13:10:24.935Z,99890.13
2023-03-25T13:12:56.212Z,99890.78
2023-03-25T13:15:29.857Z,99892.84
2023-03-25T13:18:04.167Z,99885.47
2023-03-25T13:20:37.714Z,99887.31
2023-03-25T13:23:12.140Z,99876.84
2023-03-25T13:25:49.143Z,99876.59
2023-03-25T13:28:25.412Z,99878.19
2023-03-25T13:30:55.162Z,99859.22
2023-03-25T13:33:27.792Z,99855.88
2023-03-25T13:36:05.799Z,99858.69
2023-03-25T13:38:40.665Z,99865.09
2023-03-25T13:41:17.202Z,99863.59
2023-03-25T13:44:01.307Z,99857.56
2023-03-25T13:46:36.099Z,99867.09
2023-03-25T13:49:13.780Z,99863.84
2023-03-25T13:51:40.785Z,99859.09
2023-03-25T13:54:14.445Z,99859.81
2023-03-25T13:57:12.985Z,99847.16
2023-03-25T14:00:41.998Z,99851.22
2023-03-25T14:04:01.780Z,99847.72
2023-03-25T14:07:02.166Z,99849.53
2023-03-25T14:10:25.520Z,99850.94
2023-03-25T14:12:57.044Z,99850.75
2023-03-25T14:15:30.172Z,99847.38
2023-03-25T14:17:59.229Z,99856.50
2023-03-25T14:20:34.205Z,99849.97
2023-03-25T14:23:08.260Z,99848.84
2023-03-25T14:25:41.131Z,99860.06
2023-03-25T14:28:16.055Z,99846.56
2023-03-25T14:30:43.165Z,99857.22
2023-03-25T14:33:11.260Z,99850.78
2023-03-25T14:35:59.100Z,99850.66
2023-03-25T14:38:53.848Z,99854.25
2023-03-25T14:41:58.138Z,99863.56
2023-03-25T14:44:29.424Z,99867.75
2023-03-25T14:47:22.586Z,99863.19
2023-03-25T14:49:54.185Z,99860.13
2023-03-25T14:52:30.490Z,99867.81
2023-03-25T14:55:05.001Z,99853.31
2023-03-25T14:57:41.769Z,99848.97
2023-03-25T15:00:20.204Z,99853.47
2023-03-25T15:02:58.525Z,99864.69
2023-03-25T15:05:31.125Z,99862.41
2023-03-25T15:08:10.181Z,99859.16
2023-03-25T15:10:42.207Z,99856.38
2023-03-25T15:13:18.231Z,99836.31
2023-03-25T15:16:00.831Z,99834.94
2023-03-25T15:19:02.118Z,99827.25
2023-03-25T15:21:48.380Z,99818.91
2023-03-25T15:24:26.413Z,99801.91
2023-03-25T15:26:58.104Z,99794.91
2023-03-25T15:29:48.601Z,99797.06
2023-03-25T15:32:34.437Z,99796.47
2023-03-25T15:35:33.479Z,99799.47
2023-03-25T15:38:39.580Z,99781.88
2023-03-25T15:41:43.113Z,99779.19
2023-03-25T15:44:56.735Z,99783.13
2023-03-25T15:47:40.409Z,99781.75
2023-03-25T15:50:33.675Z,99787.47
2023-03-25T15:53:43.205Z,99782.28
2023-03-25T15:56:14.443Z,99781.56
2023-03-25T15:58:52.619Z,99777.28
2023-03-25T16:01:29.189Z,99786.97
2023-03-25T16:04:05.678Z,99765.31
2023-03-25T16:06:41.346Z,99775.38
2023-03-25T16:09:17.998Z,99798.97
2023-03-25T16:11:45.784Z,99884.41
2023-03-25T16:14:15.999Z,99854.97
2023-03-25T16:16:51.640Z,99860.78
2023-03-25T16:19:23.778Z,99850.38
2023-03-25T16:21:54.134Z,99847.41
2023-03-25T16:24:26.010Z,99844.00
2023-03-25T16:26:53.381Z,99847.88
2023-03-25T16:29:23.239Z,99853.72
2023-03-25T16:32:02.199Z,99853.03
2023-03-25T16:34:35.981Z,99850.25
2023-03-25T16:37:04.882Z,99852.31
2023-03-25T16:39:36.023Z,99848.66
2023-03-25T16:42:07.876Z,99844.94
2023-03-25T16:44:35.472Z,99855.09
2023-03-25T16:47:04.254Z,99855.47
2023-03-25T16:49:35.292Z,99853.03
2023-03-25T16:52:11.912Z,99856.50
2023-03-25T16:54:47.917Z,99858.13
2023-03-25T16:57:19.574Z,99852.59
2023-03-25T16:59:50.977Z,99854.66
2023-03-25T17:02:28.555Z,99846.19
2023-03-25T17:05:13.423Z,99850.78
2023-03-25T17:07:41.131Z,99854.72
2023-03-25T17:10:20.976Z,99861.03
2023-03-25T17:12:56.779Z,99855.59
2023-03-25T17:15:26.535Z,99872.53
2023-03-25T17:18:02.092Z,99866.06
2023-03-25T17:20:37.582Z,99867.31
2023-03-25T17:23:09.108Z,99865.34
2023-03-25T17:25:51.850Z,99867.41
2023-03-25T17:28:28.652Z,99871.31
2023-03-25T17:30:56.436Z,99877.19
2023-03-25T17:33:35.140Z,99884.94
2023-03-25T17:36:08.336Z,99885.53
2023-03-25T17:38:41.973Z,99882.88
2023-03-25T17:41:11.385Z,99896.69
2023-03-25T17:43:44.476Z,99897.88
2023-03-25T17:46:16.097Z,99894.78
2023-03-25T17:48:47.504Z,99902.63
2023-03-25T17:51:18.549Z,99917.88
2023-03-25T17:53:45.487Z,99922.16
2023-03-25T17:56:16.724Z,99925.38
2023-03-25T17:58:44.137Z,99916.47
2023-03-25T18:01:13.350Z,99920.22
2023-03-25T18:03:41.479Z,99931.59
2023-03-25T18:06:12.321Z,99923.34
2023-03-25T18:08:39.312Z,99927.91
2023-03-25T18:11:10.567Z,99930.88
2023-03-25T18:13:38.465Z,99941.31
2023-03-25T18:16:06.801Z,99953.22
2023-03-25T18:18:33.742Z,99956.31
2023-03-25T18:21:03.663Z,99956.53
2023-03-25T18:23:31.910Z,99964.47
2023-03-25T18:25:59.921Z,99959.75
2023-03-25T18:28:27.538Z,99961.16
2023-03-25T18:30:58.413Z,99960.72
2023-03-25T18:33:26.189Z,99967.22
2023-03-25T18:35:53.477Z,99972.03
2023-03-25T18:38:24.363Z,99973.25
2023-03-25T18:40:55.033Z,99976.72
2023-03-25T18:43:23.029Z,99981.19
2023-03-25T18:45:50.358Z,99978.06
2023-03-25T18:48:21.255Z,99982.94
2023-03-25T18:50:52.774Z,99999.22
2023-03-25T18:53:21.693Z,99995.75
2023-03-25T18:55:49.567Z,99990.22
2023-03-25T18:58:21.106Z,100009.16
2023-03-25T19:00:51.003Z,100012.97
2023-03-25T19:03:19.796Z,100013.81
2023-03-25T19:05:47.658Z,100013.38
2023-03-25T19:08:18.778Z,100014.16
2023-03-25T19:10:47.374Z,100017.84
2023-03-25T19:13:18.764Z,100022.34
2023-03-25T19:15:46.562Z,100035.59
2023-03-25T19:18:18.363Z,100041.13
2023-03-25T19:20:48.245Z,100040.28
2023-03-25T19:23:17.275Z,100043.16
2023-03-25T19:25:46.702Z,100047.66
2023-03-25T19:28:16.639Z,100044.84
2023-03-25T19:30:46.840Z,100047.09
2023-03-25T19:33:15.344Z,100051.00
2023-03-25T19:35:42.857Z,100046.94
2023-03-25T19:38:09.875Z,100058.00
2023-03-25T19:40:38.163Z,100057.41
2023-03-25T19:43:06.405Z,100060.25
2023-03-25T19:45:33.993Z,100061.66
2023-03-25T19:48:02.327Z,100071.25
2023-03-25T19:50:32.430Z,100067.53
2023-03-25T19:53:02.718Z,100067.78
2023-03-25T19:55:30.224Z,100067.53
2023-03-25T19:57:57.288Z,100070.19
2023-03-25T20:00:27.311Z,100070.66
2023-03-25T20:03:01.468Z,100081.44
2023-03-25T20:05:31.674Z,100087.97
2023-03-25T20:07:59.637Z,100078.84
2023-03-25T20:10:30.383Z,100082.53
2023-03-25T20:12:59.053Z,100077.22
2023-03-25T20:15:27.182Z,100082.75
2023-03-25T20:17:55.891Z,100089.44
2023-03-25T20:20:24.850Z,100091.09
2023-03-25T20:22:53.700Z,100092.69
2023-03-25T20:25:21.219Z,100084.50
2023-03-25T20:27:49.041Z,100092.69
2023-03-25T20:30:19.422Z,100082.53
2023-03-25T20:32:48.422Z,100090.91
2023-03-25T20:35:18.135Z,100098.84
2023-03-25T20:37:48.547Z,100098.03
2023-03-25T20:40:18.642Z,100102.53
2023-03-25T20:42:48.209Z,100109.44
2023-03-25T20:45:17.771Z,100106.81
2023-03-25T20:47:45.479Z,100107.00
2023-03-25T20:50:16.218Z,100113.13
2023-03-25T20:52:43.734Z,100117.16
2023-03-25T20:55:11.844Z,100116.34
2023-03-25T20:57:41.262Z,100119.00
2023-03-25T21:00:13.299Z,100120.03
2023-03-25T21:02:41.713Z,100124.75
2023-03-25T21:05:09.684Z,100118.63
2023-03-25T21:07:37.763Z,100125.75
2023-03-25T21:10:06.855Z,100119.66
2023-03-25T21:12:43.208Z,100118.84
2023-03-25T21:15:14.836Z,100126.59
2023-03-25T21:17:43.123Z,100124.53
2023-03-25T21:20:11.840Z,100126.13
2023-03-25T21:22:44.967Z,100136.13
2023-03-25T21:25:16.846Z,100141.66
2023-03-25T21:27:47.492Z,100141.06
2023-03-25T21:30:16.175Z,100135.75
2023-03-25T21:32:43.835Z,100140.00
2023-03-25T21:35:10.910Z,100139.81
2023-03-25T21:37:38.817Z,100146.53
2023-03-25T21:40:10.909Z,100147.13
2023-03-25T21:42:38.724Z,100152.41
2023-03-25T21:45:11.431Z,100158.72
2023-03-25T21:47:40.189Z,100157.91
2023-03-25T21:50:11.405Z,100163.00
2023-03-25T21:52:38.755Z,100157.13
2023-03-25T21:55:07.618Z,100158.94
2023-03-25T21:57:38.028Z,100162.41
2023-03-25T22:00:08.052Z,100167.13
2023-03-25T22:02:35.575Z,100172.00
2023-03-25T22:05:04.795Z,100168.19
2023-03-25T22:07:31.792Z,100162.47
2023-03-25T22:09:58.678Z,100164.94
2023-03-25T22:12:26.005Z,100173.66
2023-03-25T22:14:52.981Z,100173.88
2023-03-25T22:17:20.281Z,100177.78
2023-03-25T22:19:48.724Z,100175.50
2023-03-25T22:22:20.723Z,100180.81
2023-03-25T22:24:49.356Z,100174.31
2023-03-25T22:27:16.661Z,100182.06
2023-03-25T22:29:44.280Z,100178.97
2023-03-25T22:32:11.267Z,100183.25
2023-03-25T22:34:39.004Z,100191.19
2023-03-25T22:37:06.415Z,100193.84
2023-03-25T22:39:35.187Z,100187.72
2023-03-25T22:42:02.205Z,100191.41
2023-03-25T22:44:29.435Z,100208.91
2023-03-25T22:46:56.570Z,100209.72
2023-03-25T22:49:23.613Z,100211.31
2023-03-25T22:51:51.364Z,100210.31
2023-03-25T22:54:18.751Z,100223.97
2023-03-25T22:56:47.347Z,100234.56
2023-03-25T22:59:15.437Z,100227.66
2023-03-25T23:01:43.212Z,100232.34
2023-03-25T23:04:10.344Z,100241.91
2023-03-25T23:06:37.547Z,100250.44
2023-03-25T23:09:08.495Z,100248.84
2023-03-25T23:11:37.770Z,100247.19
2023-03-25T23:14:11.970Z,100255.38
2023-03-25T23:16:41.412Z,100256.19
2023-03-25T23:19:09.724Z,100265.72
2023-03-25T23:21:36.937Z,100268.59
2023-03-25T23:24:04.480Z,100268.78
2023-03-25T23:26:36.568Z,100272.47
2023-03-25T23:29:08.857Z,100274.28
2023-03-25T23:31:38.200Z,100280.00
2023-03-25T23:34:08.074Z,100284.91
2023-03-25T23:36:38.210Z,100286.34
2023-03-25T23:39:07.565Z,100287.56
2023-03-25T23:41:35.059Z,100294.69
2023-03-25T23:44:05.666Z,100293.66
2023-03-25T23:46:33.971Z,100296.94
2023-03-25T23:49:05.638Z,100296.16
2023-03-25T23:51:36.556Z,100300.19
2023-03-25T23:54:05.575Z,100297.75
2023-03-25T23:56:33.244Z,100305.91
2023-03-25T23:59:01.455Z,100302.44
